Gaschem Jade — ELSU9 — position and weather

sailwx.info

Track history (hours):
 
Tides and Currents Weather Stations Pressure Air Temp Water Temp Dewpoint Dewpoint Depression Visibility Wind Speed Wind Dir Waves Ship Positions

Gaschem Jade

Last reported at 2017-Dec-15 20:41 UTC. Time now 2017-Dec-18 03:22 UTC.
Position N 01°11' E 103°50'.

Length 113.2 m; beam 15.9 m; draft 6.1 m.

Type: Ship. MMSI: 636090168.

Date/timePositionNaut miles runAvg speedWind from/ knotsBaromVisibWave heightAir tempDewpointWater temp
2017-Dec-15 20:41N 01°11' E 103°50'2 9.9
2017-Dec-15 20:30N 01°10' E 103°49'5 9.9
2017-Dec-15 20:00N 01°07' E 103°45'5 9.9
2017-Dec-15 19:30N 01°04' E 103°41'5 9.6
2017-Dec-15 18:59N 01°04' E 103°36'5 9.7
2017-Dec-15 18:25N 01°08' E 103°32'511.8
2017-Dec-15 18:01N 01°11' E 103°36'4 8.5
2017-Dec-15 17:30N 01°13' E 103°40'1 1.3
2017-Dec-15 16:46N 01°13' E 103°39'0 0.0
2017-Dec-15 16:19N 01°13' E 103°39'0 0.0
2017-Dec-15 15:49N 01°13' E 103°39'0 0.0
2017-Dec-15 15:28N 01°13' E 103°39'0 0.0
2017-Dec-15 14:45N 01°13' E 103°39'0 0.0
2017-Dec-15 14:30N 01°13' E 103°39'0 0.0
2017-Dec-15 13:59N 01°13' E 103°39'0 0.0
2017-Dec-15 13:27N 01°13' E 103°39'0 0.0
2017-Dec-15 12:50N 01°13' E 103°39'0 0.0
2017-Dec-15 12:20N 01°13' E 103°39'0 0.0
2017-Dec-15 11:59N 01°13' E 103°39'0 0.0
2017-Dec-15 11:29N 01°13' E 103°39'0 0.0
2017-Dec-15 10:59N 01°13' E 103°39'0 0.0
2017-Dec-15 10:19N 01°13' E 103°39'0 0.1
2017-Dec-15 09:58N 01°13' E 103°39'0 0.1
2017-Dec-15 09:28N 01°13' E 103°39'0 0.2
2017-Dec-15 08:52N 01°14' E 103°39'0 0.4
2017-Dec-15 08:31N 01°14' E 103°39'2 4.9
2017-Dec-15 08:01N 01°13' E 103°37'3 5.3
2017-Dec-15 07:29N 01°12' E 103°34'4 6.6
2017-Dec-15 06:54N 01°10' E 103°31'  
Track history (hours):
 
Tides and Currents Weather Stations Pressure Air Temp Water Temp Dewpoint Dewpoint Depression Visibility Wind Speed Wind Dir Waves Ship Positions

Gaschem Jade

Last reported at 2017-Dec-15 20:41 UTC. Time now 2017-Dec-18 03:22 UTC.
Position N 01°11' E 103°50'.

Length 113.2 m; beam 15.9 m; draft 6.1 m.

Type: Ship. MMSI: 636090168.

Date/timePositionNaut miles runAvg speedWind from/ knotsBaromVisibWave heightAir tempDewpointWater temp
2017-Dec-15 20:41N 01°11' E 103°50'2 9.9
2017-Dec-15 20:30N 01°10' E 103°49'5 9.9
2017-Dec-15 20:00N 01°07' E 103°45'5 9.9
2017-Dec-15 19:30N 01°04' E 103°41'5 9.6
2017-Dec-15 18:59N 01°04' E 103°36'5 9.7
2017-Dec-15 18:25N 01°08' E 103°32'511.8
2017-Dec-15 18:01N 01°11' E 103°36'4 8.5
2017-Dec-15 17:30N 01°13' E 103°40'1 1.3
2017-Dec-15 16:46N 01°13' E 103°39'0 0.0
2017-Dec-15 16:19N 01°13' E 103°39'0 0.0
2017-Dec-15 15:49N 01°13' E 103°39'0 0.0
2017-Dec-15 15:28N 01°13' E 103°39'0 0.0
2017-Dec-15 14:45N 01°13' E 103°39'0 0.0
2017-Dec-15 14:30N 01°13' E 103°39'0 0.0
2017-Dec-15 13:59N 01°13' E 103°39'0 0.0
2017-Dec-15 13:27N 01°13' E 103°39'0 0.0
2017-Dec-15 12:50N 01°13' E 103°39'0 0.0
2017-Dec-15 12:20N 01°13' E 103°39'0 0.0
2017-Dec-15 11:59N 01°13' E 103°39'0 0.0
2017-Dec-15 11:29N 01°13' E 103°39'0 0.0
2017-Dec-15 10:59N 01°13' E 103°39'0 0.0
2017-Dec-15 10:19N 01°13' E 103°39'0 0.1
2017-Dec-15 09:58N 01°13' E 103°39'0 0.1
2017-Dec-15 09:28N 01°13' E 103°39'0 0.2
2017-Dec-15 08:52N 01°14' E 103°39'0 0.4
2017-Dec-15 08:31N 01°14' E 103°39'2 4.9
2017-Dec-15 08:01N 01°13' E 103°37'3 5.3
2017-Dec-15 07:29N 01°12' E 103°34'4 6.6
2017-Dec-15 06:54N 01°10' E 103°31'  

Dump ship's entire track history